Time;durP1;ratioP1;P1;durP2;ratioP2;P2;SDS_P1;SDS_P2;PMS_P1;PMS_P2;Temp;Humidity;BMP_temperature;BMP_pressure;BME280_temperature;BME280_humidity;BME280_pressure;Samples;Min_cycle;Max_cycle;Signal;HPM_P1;HPM_P2
2022/06/02 00:00:07;;;;;;;1.47;1.00;;;11.90;97.00;;;;;;5029403;28;20478;-78
2022/06/02 00:02:42;;;;;;;1.50;1.10;;;11.80;97.00;;;;;;5014410;28;20513;-78
2022/06/02 00:05:17;;;;;;;1.50;1.10;;;11.80;97.60;;;;;;5029139;28;20502;-77
2022/06/02 00:07:58;;;;;;;1.50;1.10;;;11.80;97.80;;;;;;5007243;28;20501;-78
2022/06/02 00:10:41;;;;;;;1.50;1.10;;;11.80;97.50;;;;;;5013462;28;20463;-78
2022/06/02 00:13:18;;;;;;;1.43;1.00;;;11.80;97.60;;;;;;5021452;28;20491;-78
2022/06/02 00:15:52;;;;;;;1.50;1.10;;;11.80;98.20;;;;;;5028700;28;20493;-78
2022/06/02 00:18:29;;;;;;;1.47;1.00;;;11.80;97.80;;;;;;5016168;28;20499;-78
2022/06/02 00:21:02;;;;;;;1.47;1.07;;;11.70;98.00;;;;;;5019376;28;20471;-79
2022/06/02 00:23:42;;;;;;;1.50;1.00;;;11.70;97.90;;;;;;5028694;28;20468;-78
2022/06/02 00:26:26;;;;;;;1.50;1.10;;;11.70;97.50;;;;;;5028109;28;20487;-78
2022/06/02 00:29:03;;;;;;;1.50;1.10;;;11.60;97.40;;;;;;5029001;28;20474;-78
2022/06/02 00:31:38;;;;;;;1.47;1.10;;;11.60;97.70;;;;;;5020623;28;20466;-79
2022/06/02 00:34:15;;;;;;;1.50;1.10;;;11.60;98.20;;;;;;5029156;28;20464;-78
2022/06/02 00:36:50;;;;;;;1.43;1.00;;;11.50;98.20;;;;;;5023637;28;20477;-78
2022/06/02 00:39:19;;;;;;;1.50;1.07;;;11.50;98.20;;;;;;5020857;28;20797;-77
2022/06/02 00:41:59;;;;;;;1.50;1.10;;;11.50;98.20;;;;;;5021875;28;20470;-78
2022/06/02 00:44:33;;;;;;;1.50;1.07;;;11.40;98.20;;;;;;5028384;28;20471;-77
2022/06/02 00:47:04;;;;;;;1.50;1.00;;;11.40;98.20;;;;;;5025752;28;20880;-77
2022/06/02 00:49:48;;;;;;;1.50;1.10;;;11.40;98.20;;;;;;5027179;28;20474;-78
2022/06/02 00:52:28;;;;;;;1.50;1.10;;;11.40;98.20;;;;;;5022958;28;20466;-78
2022/06/02 00:58:06;;;;;;;1.50;1.00;;;11.30;98.20;;;;;;4986984;28;20570;-77
2022/06/02 01:00:39;;;;;;;1.50;1.10;;;11.30;98.20;;;;;;5027780;28;20844;-78
2022/06/02 01:03:10;;;;;;;1.50;1.10;;;11.20;98.20;;;;;;5024067;28;20571;-78
2022/06/02 01:05:53;;;;;;;1.50;1.20;;;11.20;98.20;;;;;;5012327;28;20495;-77
2022/06/02 01:08:29;;;;;;;1.50;1.10;;;11.20;98.20;;;;;;5021207;28;20463;-78
2022/06/02 01:11:07;;;;;;;1.50;1.10;;;11.20;98.20;;;;;;5021633;28;20653;-78
2022/06/02 01:13:51;;;;;;;1.50;1.20;;;11.10;98.20;;;;;;5024506;28;20855;-77
2022/06/02 01:16:22;;;;;;;1.50;1.10;;;11.10;98.20;;;;;;5024239;28;20487;-77
2022/06/02 01:19:06;;;;;;;1.50;1.20;;;11.10;98.20;;;;;;5013450;28;20484;-77
2022/06/02 01:21:58;;;;;;;1.50;1.10;;;11.10;98.20;;;;;;5018385;28;20462;-77
2022/06/02 01:24:51;;;;;;;1.50;1.10;;;11.10;98.20;;;;;;5022117;28;20458;-78
2022/06/02 01:27:30;;;;;;;1.47;1.10;;;11.00;98.20;;;;;;5017156;28;20463;-77
2022/06/02 01:30:17;;;;;;;1.50;1.10;;;11.00;98.20;;;;;;5017238;28;20464;-78
2022/06/02 01:32:55;;;;;;;1.50;1.10;;;11.00;98.20;;;;;;5025590;28;20879;-78
2022/06/02 01:35:29;;;;;;;1.50;1.00;;;11.00;98.20;;;;;;5021626;28;20490;-78
2022/06/02 01:38:04;;;;;;;2.53;2.23;;;10.90;98.20;;;;;;5020709;28;20523;-77
2022/06/02 01:40:39;;;;;;;1.50;1.10;;;10.90;98.20;;;;;;5020457;28;20465;-77
2022/06/02 01:43:13;;;;;;;1.50;1.10;;;10.90;98.20;;;;;;5028110;28;20467;-78
2022/06/02 01:46:11;;;;;;;1.50;1.10;;;10.90;98.20;;;;;;5030854;28;21030;-77
2022/06/02 01:48:46;;;;;;;1.50;1.10;;;10.80;98.20;;;;;;5026699;28;20810;-77
2022/06/02 01:51:26;;;;;;;1.50;1.10;;;10.80;98.20;;;;;;5027037;28;20463;-77
2022/06/02 01:54:03;;;;;;;1.50;1.10;;;10.80;98.20;;;;;;5029212;28;20463;-78
2022/06/02 01:56:54;;;;;;;1.50;1.10;;;10.80;98.20;;;;;;5030622;28;20478;-78
2022/06/02 01:59:38;;;;;;;1.50;1.10;;;10.80;98.20;;;;;;5027452;28;21117;-79
2022/06/02 02:02:20;;;;;;;1.50;1.10;;;10.70;98.20;;;;;;5025130;28;20461;-77
2022/06/02 02:05:06;;;;;;;1.47;1.10;;;10.70;98.20;;;;;;5030840;28;20496;-77
2022/06/02 02:07:40;;;;;;;1.50;1.20;;;10.70;98.20;;;;;;5022838;28;20473;-77
2022/06/02 02:10:18;;;;;;;1.50;1.20;;;10.70;98.20;;;;;;5026328;28;20471;-78
2022/06/02 02:12:58;;;;;;;1.50;1.10;;;10.70;98.20;;;;;;5025192;28;20463;-77
2022/06/02 02:15:37;;;;;;;1.50;1.10;;;10.70;98.20;;;;;;5030792;28;20509;-77
2022/06/02 02:18:28;;;;;;;1.50;1.10;;;10.60;98.20;;;;;;5025350;28;20491;-78
2022/06/02 02:21:06;;;;;;;1.50;1.10;;;10.60;98.20;;;;;;5029658;28;20478;-78
2022/06/02 02:23:47;;;;;;;1.47;1.17;;;10.60;98.20;;;;;;5030434;28;20466;-78
2022/06/02 02:26:18;;;;;;;1.50;1.10;;;10.60;98.20;;;;;;5022490;28;20671;-78
2022/06/02 02:28:52;;;;;;;1.50;1.10;;;10.50;98.20;;;;;;5015762;28;20460;-77
2022/06/02 02:31:33;;;;;;;1.50;1.10;;;10.50;98.20;;;;;;5019287;28;20903;-77
2022/06/02 02:34:07;;;;;;;1.50;1.20;;;10.50;98.20;;;;;;5029116;28;21022;-77
2022/06/02 02:36:43;;;;;;;1.50;1.10;;;10.50;98.20;;;;;;5024036;28;20491;-77
2022/06/02 02:39:18;;;;;;;1.50;1.10;;;10.50;98.20;;;;;;5020389;28;21265;-77
2022/06/02 02:41:48;;;;;;;1.47;1.10;;;10.50;98.20;;;;;;5016016;28;20490;-77
2022/06/02 02:44:22;;;;;;;1.50;1.10;;;10.50;98.20;;;;;;5029946;28;20463;-77
2022/06/02 02:46:58;;;;;;;1.50;1.10;;;10.40;98.20;;;;;;5024600;28;21141;-77
2022/06/02 02:49:33;;;;;;;1.50;1.20;;;10.40;98.20;;;;;;5030051;28;20465;-77
2022/06/02 02:52:08;;;;;;;1.50;1.10;;;10.40;98.20;;;;;;5026246;28;20463;-77
2022/06/02 02:54:46;;;;;;;1.50;1.10;;;10.40;98.20;;;;;;5025868;28;20474;-78
2022/06/02 02:57:21;;;;;;;1.50;1.10;;;10.40;98.20;;;;;;5003889;28;20480;-77
2022/06/02 02:59:55;;;;;;;1.50;1.10;;;10.30;98.20;;;;;;5015573;28;20488;-77
2022/06/02 03:02:29;;;;;;;1.50;1.20;;;10.30;98.20;;;;;;5005171;28;20488;-77
2022/06/02 03:05:02;;;;;;;1.47;1.10;;;10.30;98.20;;;;;;5018865;28;20487;-77
2022/06/02 03:07:32;;;;;;;1.50;1.10;;;10.30;98.20;;;;;;5024143;28;20469;-76
2022/06/02 03:10:05;;;;;;;1.50;1.10;;;10.30;98.20;;;;;;5017283;28;20470;-76
2022/06/02 03:12:56;;;;;;;1.50;1.10;;;10.30;98.20;;;;;;5026478;28;20585;-77
2022/06/02 03:15:28;;;;;;;1.50;1.10;;;10.20;98.20;;;;;;5029712;28;20495;-77
2022/06/02 03:18:26;;;;;;;1.50;1.20;;;10.20;98.20;;;;;;5018235;28;20495;-77
2022/06/02 03:20:57;;;;;;;1.50;1.10;;;10.20;98.20;;;;;;5021465;28;20526;-76
2022/06/02 03:23:58;;;;;;;1.50;1.20;;;10.20;98.20;;;;;;5023548;28;20906;-77
2022/06/02 03:26:34;;;;;;;1.50;1.10;;;10.20;98.20;;;;;;5021577;28;21007;-76
2022/06/02 03:29:08;;;;;;;1.50;1.10;;;10.20;98.20;;;;;;5012818;28;20475;-76
2022/06/02 03:31:42;;;;;;;1.50;1.20;;;10.20;98.20;;;;;;5014664;28;20468;-78
2022/06/02 03:34:17;;;;;;;1.50;1.20;;;10.20;98.20;;;;;;5025666;28;20823;-75
2022/06/02 03:36:57;;;;;;;1.50;1.20;;;10.20;98.20;;;;;;5024329;28;20478;-75
2022/06/02 03:39:40;;;;;;;1.50;1.10;;;10.20;98.20;;;;;;5018767;28;20486;-76
2022/06/02 03:42:21;;;;;;;1.50;1.10;;;10.10;98.20;;;;;;5024353;28;20463;-76
2022/06/02 03:45:03;;;;;;;1.50;1.10;;;10.20;98.20;;;;;;5020119;28;20479;-77
2022/06/02 03:47:53;;;;;;;1.50;1.10;;;10.20;98.20;;;;;;5015556;28;20478;-77
2022/06/02 03:50:38;;;;;;;1.50;1.10;;;10.20;98.20;;;;;;5016827;28;20463;-75
2022/06/02 03:53:21;;;;;;;1.50;1.10;;;10.20;98.20;;;;;;5024555;28;20545;-76
2022/06/02 03:55:59;;;;;;;1.50;1.20;;;10.20;98.20;;;;;;5028697;28;20491;-76
2022/06/02 03:58:55;;;;;;;1.50;1.20;;;10.20;98.20;;;;;;5026430;28;20528;-76
2022/06/02 04:01:27;;;;;;;1.50;1.10;;;10.30;98.20;;;;;;5015873;28;21002;-77
2022/06/02 04:04:13;;;;;;;1.50;1.10;;;10.30;98.20;;;;;;5026903;28;20959;-76
2022/06/02 04:06:52;;;;;;;1.50;1.00;;;10.30;98.20;;;;;;5025785;28;20494;-77
2022/06/02 04:09:31;;;;;;;1.50;1.10;;;10.40;98.20;;;;;;5012146;28;20460;-77
2022/06/02 04:15:11;;;;;;;1.50;1.03;;;10.50;98.20;;;;;;5028554;28;20755;-77
2022/06/02 04:17:48;;;;;;;1.50;1.10;;;10.50;98.20;;;;;;5023245;28;20977;-76
2022/06/02 04:20:36;;;;;;;1.43;1.03;;;10.60;98.20;;;;;;5022799;28;20490;-76
2022/06/02 04:23:27;;;;;;;1.50;1.10;;;10.60;98.20;;;;;;5022528;28;20463;-78
2022/06/02 04:26:01;;;;;;;1.50;1.10;;;10.70;98.20;;;;;;5023990;28;20897;-76
2022/06/02 04:28:42;;;;;;;1.50;1.10;;;10.80;98.20;;;;;;5026591;28;20959;-77
2022/06/02 04:31:18;;;;;;;1.50;1.10;;;10.80;98.20;;;;;;5025080;28;20496;-77
2022/06/02 04:33:52;;;;;;;1.50;1.00;;;10.90;98.20;;;;;;5028355;28;20466;-77
2022/06/02 04:36:25;;;;;;;1.43;1.07;;;10.90;98.20;;;;;;5025884;28;20502;-77
2022/06/02 04:38:59;;;;;;;1.50;1.10;;;11.00;98.20;;;;;;5016787;28;20999;-77
2022/06/02 04:41:35;;;;;;;1.50;1.10;;;11.00;98.20;;;;;;5005959;28;20480;-77
2022/06/02 04:44:14;;;;;;;1.47;1.10;;;11.10;98.20;;;;;;5027483;28;20938;-77
2022/06/02 04:46:51;;;;;;;1.50;1.10;;;11.10;98.20;;;;;;5026423;28;20483;-77
2022/06/02 04:49:24;;;;;;;1.43;1.03;;;11.30;98.20;;;;;;5024418;28;20466;-76
2022/06/02 04:51:57;;;;;;;1.50;1.10;;;11.40;98.20;;;;;;5008298;28;20471;-76
2022/06/02 04:54:37;;;;;;;1.50;1.20;;;11.60;98.20;;;;;;5012701;28;20467;-77
2022/06/02 04:57:23;;;;;;;1.50;1.10;;;11.90;98.20;;;;;;5001764;28;20887;-76
2022/06/02 04:59:58;;;;;;;1.50;1.07;;;12.20;98.20;;;;;;5015989;28;20491;-77
2022/06/02 05:02:36;;;;;;;1.50;1.00;;;12.40;98.20;;;;;;5017047;28;20474;-74
2022/06/02 05:05:13;;;;;;;1.50;1.00;;;12.50;98.20;;;;;;5017612;28;20495;-76
2022/06/02 05:07:59;;;;;;;1.50;1.00;;;12.70;98.20;;;;;;5003778;28;20484;-76
2022/06/02 05:10:39;;;;;;;1.50;1.00;;;13.00;98.20;;;;;;5021577;28;20851;-77
2022/06/02 05:13:16;;;;;;;1.50;1.00;;;13.20;98.20;;;;;;4994843;28;20495;-77
2022/06/02 05:16:02;;;;;;;1.50;1.00;;;13.40;98.20;;;;;;5025835;28;20983;-79
2022/06/02 05:18:56;;;;;;;1.50;1.00;;;13.60;98.20;;;;;;5024799;28;20959;-83
2022/06/02 05:21:56;;;;;;;1.50;1.00;;;13.90;97.50;;;;;;5030482;28;20455;-77
2022/06/02 05:24:44;;;;;;;1.50;0.97;;;14.00;96.90;;;;;;5027200;28;20479;-82
2022/06/02 05:27:41;;;;;;;1.50;1.00;;;14.20;97.20;;;;;;5014194;28;20483;-80
2022/06/02 05:30:25;;;;;;;1.50;1.00;;;14.30;96.20;;;;;;5022245;28;20455;-78
2022/06/02 05:33:17;;;;;;;1.50;1.00;;;14.50;96.10;;;;;;5018108;28;20467;-78
2022/06/02 05:36:13;;;;;;;1.50;1.00;;;14.70;95.10;;;;;;5025579;28;20490;-82
2022/06/02 05:38:52;;;;;;;1.50;1.00;;;14.80;94.90;;;;;;5021317;28;20470;-81
2022/06/02 05:41:46;;;;;;;1.50;1.00;;;14.90;94.30;;;;;;5028499;28;20474;-81
2022/06/02 05:44:26;;;;;;;1.43;0.90;;;14.90;94.50;;;;;;5024431;28;20463;-80
2022/06/02 05:47:10;;;;;;;1.60;1.20;;;15.10;93.80;;;;;;5032196;28;20734;-79
2022/06/02 05:49:47;;;;;;;1.47;0.90;;;15.20;94.40;;;;;;5017549;28;20474;-77
2022/06/02 05:52:31;;;;;;;1.50;0.90;;;15.20;93.60;;;;;;5018179;28;20489;-78
2022/06/02 05:55:40;;;;;;;1.50;0.80;;;15.10;93.10;;;;;;5026627;28;20573;-79
2022/06/02 05:58:34;;;;;;;1.47;0.90;;;15.20;93.80;;;;;;4985638;28;20543;-79
2022/06/02 06:01:10;;;;;;;1.43;1.00;;;15.30;93.60;;;;;;5025648;28;20862;-81
2022/06/02 06:03:54;;;;;;;1.43;0.97;;;15.40;92.90;;;;;;5024404;28;20483;-78
2022/06/02 06:06:31;;;;;;;1.50;1.00;;;15.50;92.90;;;;;;5009753;28;20483;-78
2022/06/02 06:09:09;;;;;;;1.50;1.00;;;15.60;93.40;;;;;;5012722;28;20955;-83
2022/06/02 06:11:58;;;;;;;1.50;0.90;;;15.90;92.90;;;;;;5023520;28;20459;-80
2022/06/02 06:14:35;;;;;;;1.47;0.90;;;16.20;92.30;;;;;;5033082;28;20990;-83
2022/06/02 06:17:11;;;;;;;1.47;1.00;;;16.40;90.40;;;;;;5025477;28;20893;-78
2022/06/02 06:19:49;;;;;;;1.50;1.00;;;16.40;90.70;;;;;;5022538;28;20486;-81
2022/06/02 06:22:55;;;;;;;1.50;0.90;;;16.60;90.60;;;;;;5013823;28;20853;-79
2022/06/02 06:25:37;;;;;;;1.50;1.00;;;17.00;89.00;;;;;;5021744;28;20493;-82
2022/06/02 06:28:13;;;;;;;1.50;0.90;;;17.30;88.30;;;;;;5029951;28;20551;-81
2022/06/02 06:30:53;;;;;;;1.50;0.90;;;17.60;87.60;;;;;;5022661;28;20463;-79
2022/06/02 06:33:47;;;;;;;1.50;0.90;;;17.60;87.50;;;;;;5033548;28;20555;-83
2022/06/02 06:36:40;;;;;;;1.47;0.90;;;17.80;87.00;;;;;;5023606;28;20482;-83
2022/06/02 06:39:22;;;;;;;1.43;0.90;;;18.10;85.90;;;;;;5012538;28;20471;-82
2022/06/02 06:42:08;;;;;;;1.50;0.90;;;18.40;85.20;;;;;;5027965;28;20464;-80
2022/06/02 06:44:40;;;;;;;1.50;1.10;;;18.50;84.90;;;;;;5032416;28;20525;-84
2022/06/02 06:47:11;;;;;;;2.23;1.93;;;18.80;84.20;;;;;;5031103;28;20464;-80
2022/06/02 06:49:58;;;;;;;1.47;0.90;;;19.00;84.90;;;;;;5030489;28;20455;-78
2022/06/02 06:53:01;;;;;;;1.47;0.90;;;19.10;84.10;;;;;;5028328;28;20563;-79
2022/06/02 06:55:52;;;;;;;1.50;1.00;;;19.30;83.30;;;;;;5020636;28;20714;-78
2022/06/02 06:58:35;;;;;;;1.50;0.90;;;19.60;82.60;;;;;;5027516;28;20459;-83
2022/06/02 07:01:07;;;;;;;1.50;0.90;;;19.70;83.10;;;;;;5026441;28;20487;-85
2022/06/02 07:03:46;;;;;;;1.47;0.90;;;19.70;82.60;;;;;;5027578;28;20463;-81
2022/06/02 07:06:19;;;;;;;1.50;0.90;;;19.80;82.60;;;;;;5022555;28;20874;-81
2022/06/02 07:08:54;;;;;;;1.50;1.00;;;20.00;81.90;;;;;;5029587;28;20474;-81
2022/06/02 07:14:21;;;;;;;1.50;0.90;;;20.40;81.40;;;;;;5024516;28;20475;-82
2022/06/02 07:16:55;;;;;;;1.47;0.90;;;20.60;80.30;;;;;;5014092;28;20543;-79
2022/06/02 07:19:28;;;;;;;1.43;0.90;;;20.70;80.20;;;;;;5023503;28;20491;-79
2022/06/02 07:22:00;;;;;;;1.47;0.90;;;20.80;79.40;;;;;;5024008;28;20467;-79
2022/06/02 07:24:37;;;;;;;1.47;0.90;;;20.90;79.50;;;;;;5026582;28;20846;-79
2022/06/02 07:27:14;;;;;;;1.47;0.90;;;21.00;79.40;;;;;;5032342;28;20566;-78
2022/06/02 07:29:51;;;;;;;1.50;0.83;;;21.10;79.10;;;;;;5027913;28;20466;-83
2022/06/02 07:32:49;;;;;;;1.47;0.90;;;21.20;78.80;;;;;;5024207;28;20467;-80
2022/06/02 07:35:52;;;;;;;1.50;0.90;;;21.40;78.30;;;;;;5027722;28;20491;-78
2022/06/02 07:38:32;;;;;;;1.60;1.20;;;21.70;78.30;;;;;;5024600;28;20462;-80
2022/06/02 07:41:15;;;;;;;1.50;0.80;;;21.70;77.30;;;;;;5021587;28;20487;-79
2022/06/02 07:44:03;;;;;;;1.50;0.90;;;21.60;78.50;;;;;;5027834;28;20464;-82
2022/06/02 07:47:00;;;;;;;1.50;0.90;;;21.40;77.30;;;;;;5019624;28;20483;-80
2022/06/02 07:49:54;;;;;;;1.50;0.90;;;21.20;78.80;;;;;;5025018;28;20474;-79
2022/06/02 07:52:28;;;;;;;1.47;0.90;;;20.90;80.10;;;;;;5021673;28;20884;-79
2022/06/02 07:55:03;;;;;;;1.43;0.90;;;20.80;79.70;;;;;;5027724;28;20936;-82
2022/06/02 07:57:41;;;;;;;1.50;0.90;;;20.80;79.60;;;;;;5016548;28;20498;-78
2022/06/02 08:00:17;;;;;;;1.50;0.90;;;20.90;79.00;;;;;;5026289;28;20497;-80
2022/06/02 08:03:12;;;;;;;1.43;0.90;;;20.80;78.00;;;;;;5023709;28;20456;-83
2022/06/02 08:05:46;;;;;;;1.50;1.00;;;20.60;79.30;;;;;;5032910;28;20897;-79
2022/06/02 08:08:22;;;;;;;1.50;0.90;;;20.30;79.30;;;;;;5025665;28;20525;-78
2022/06/02 08:11:06;;;;;;;1.50;0.90;;;20.10;79.60;;;;;;5015370;28;20469;-79
2022/06/02 08:13:38;;;;;;;1.50;0.90;;;20.00;80.80;;;;;;5015639;28;20468;-76
2022/06/02 08:16:11;;;;;;;1.50;0.90;;;19.80;80.40;;;;;;5024742;28;20483;-78
2022/06/02 08:18:54;;;;;;;1.47;0.90;;;19.50;81.30;;;;;;5024035;28;20463;-79
2022/06/02 08:21:26;;;;;;;1.43;0.90;;;19.40;82.40;;;;;;5020843;28;20527;-79
2022/06/02 08:24:16;;;;;;;1.43;0.90;;;19.40;81.30;;;;;;5022882;28;21113;-79
2022/06/02 08:26:53;;;;;;;1.43;0.90;;;19.40;81.70;;;;;;5022471;28;20491;-79
2022/06/02 08:29:32;;;;;;;1.50;0.90;;;19.40;81.20;;;;;;5021397;28;20463;-79
2022/06/02 08:32:20;;;;;;;1.50;0.90;;;19.40;82.10;;;;;;5020223;28;20853;-79
2022/06/02 08:34:54;;;;;;;1.50;0.90;;;19.20;82.00;;;;;;5021805;28;20471;-79
2022/06/02 08:37:31;;;;;;;1.47;0.90;;;19.10;82.90;;;;;;5022949;28;20471;-79
2022/06/02 08:40:20;;;;;;;1.60;1.40;;;19.00;82.40;;;;;;5011646;28;20928;-79
2022/06/02 08:43:26;;;;;;;1.43;0.90;;;19.00;82.90;;;;;;5005668;28;20487;-79
2022/06/02 08:46:27;;;;;;;1.47;0.90;;;19.00;81.50;;;;;;5014853;28;20491;-79
2022/06/02 08:49:22;;;;;;;1.43;0.90;;;19.10;82.00;;;;;;5017865;28;20771;-79
2022/06/02 08:52:52;;;;;;;1.47;0.90;;;19.30;82.70;;;;;;5023554;28;20459;-79
2022/06/02 08:55:59;;;;;;;1.50;0.90;;;19.80;80.60;;;;;;5020723;28;20491;-79
2022/06/02 08:59:02;;;;;;;1.50;0.90;;;20.50;80.20;;;;;;5019846;28;20481;-79
2022/06/02 09:01:46;;;;;;;1.50;0.90;;;21.10;78.50;;;;;;5016104;28;20487;-79
2022/06/02 09:04:58;;;;;;;1.50;1.20;;;21.70;77.30;;;;;;5019506;28;20555;-78
2022/06/02 09:07:57;;;;;;;1.47;0.80;;;22.20;75.00;;;;;;5001963;28;20491;-80
2022/06/02 09:10:51;;;;;;;1.50;0.83;;;22.40;68.50;;;;;;5020285;28;20459;-80
2022/06/02 09:14:09;;;;;;;1.50;0.80;;;22.20;68.60;;;;;;5023558;28;20472;-80
2022/06/02 09:16:52;;;;;;;1.47;0.80;;;22.00;69.40;;;;;;5022869;28;20889;-79
2022/06/02 09:19:34;;;;;;;1.47;0.90;;;22.00;69.60;;;;;;5030002;28;20470;-80
2022/06/02 09:22:14;;;;;;;1.47;0.90;;;22.20;69.90;;;;;;5018755;28;20491;-81
2022/06/02 09:24:44;;;;;;;1.43;0.90;;;22.20;67.40;;;;;;5015084;28;20455;-81
2022/06/02 09:27:53;;;;;;;1.50;1.00;;;22.30;68.30;;;;;;5007164;28;20493;-79
2022/06/02 09:30:28;;;;;;;1.40;0.90;;;22.70;68.20;;;;;;5017486;28;20545;-79
2022/06/02 09:35:59;;;;;;;1.50;0.90;;;23.00;66.40;;;;;;5021153;28;20558;-79
2022/06/02 09:38:46;;;;;;;1.50;0.90;;;22.60;67.30;;;;;;5018352;28;20467;-77
2022/06/02 09:41:32;;;;;;;1.47;0.90;;;22.40;70.00;;;;;;5019271;28;20918;-80
2022/06/02 09:44:26;;;;;;;1.50;0.90;;;22.60;70.40;;;;;;5026866;28;20497;-81
2022/06/02 09:47:39;;;;;;;1.47;0.90;;;22.80;69.20;;;;;;5020824;28;20487;-80
2022/06/02 09:50:50;;;;;;;1.47;0.80;;;22.50;68.00;;;;;;4998064;28;20472;-78
2022/06/02 09:54:02;;;;;;;1.50;0.90;;;22.30;69.40;;;;;;5017978;28;20629;-80
2022/06/02 09:57:55;;;;;;;1.47;0.90;;;21.80;69.60;;;;;;4934274;29;20494;-80
2022/06/02 10:00:05;;;;;;;1.50;0.90;;;21.20;70.20;;;;;;5021550;28;20495;-77
2022/06/02 10:02:37;;;;;;;1.43;0.87;;;21.10;72.00;;;;;;5018424;28;20463;-78
2022/06/02 10:05:32;;;;;;;1.47;0.90;;;21.10;72.10;;;;;;5015999;28;20493;-81
2022/06/02 10:08:11;;;;;;;1.47;0.90;;;21.10;70.80;;;;;;5033067;28;20526;-82
2022/06/02 10:10:49;;;;;;;1.50;0.90;;;21.30;71.10;;;;;;5031896;28;20832;-82
2022/06/02 10:13:56;;;;;;;1.43;0.90;;;21.60;71.90;;;;;;5037877;28;20457;-82
2022/06/02 10:16:59;;;;;;;1.47;0.80;;;22.10;73.70;;;;;;5029832;28;20513;-82
2022/06/02 10:20:06;;;;;;;1.47;0.80;;;22.60;68.40;;;;;;5034998;28;20455;-82
2022/06/02 10:22:44;;;;;;;2.70;2.40;;;23.10;68.20;;;;;;4997784;28;20555;-82
2022/06/02 10:25:47;;;;;;;1.50;0.80;;;23.40;65.40;;;;;;5041197;28;20493;-81
2022/06/02 10:28:54;;;;;;;1.40;0.80;;;23.00;64.10;;;;;;4997275;28;20479;-82
2022/06/02 10:32:02;;;;;;;1.40;0.80;;;23.10;66.00;;;;;;5022342;28;20482;-82
2022/06/02 10:35:07;;;;;;;1.40;0.83;;;23.40;66.10;;;;;;5034189;28;20463;-82
2022/06/02 10:37:54;;;;;;;1.50;1.03;;;23.80;63.30;;;;;;5028552;28;20472;-82
2022/06/02 10:40:46;;;;;;;1.47;0.80;;;24.20;64.20;;;;;;5032112;28;20532;-82
2022/06/02 10:43:34;;;;;;;1.40;0.90;;;24.60;63.20;;;;;;5033196;28;20459;-82
2022/06/02 10:46:41;;;;;;;1.40;0.90;;;24.50;62.90;;;;;;5039478;28;20493;-83
2022/06/02 10:49:25;;;;;;;1.40;0.80;;;24.90;62.80;;;;;;5037752;28;20469;-83
2022/06/02 10:52:28;;;;;;;1.47;0.80;;;25.20;62.60;;;;;;5035428;28;20481;-83
2022/06/02 10:55:28;;;;;;;1.47;0.80;;;25.30;64.60;;;;;;5042607;28;20486;-84
2022/06/02 10:58:31;;;;;;;1.50;1.10;;;25.70;61.50;;;;;;5029547;28;20564;-82
2022/06/02 11:01:25;;;;;;;1.50;0.80;;;25.70;60.90;;;;;;5014666;28;20521;-84
2022/06/02 11:04:26;;;;;;;1.47;0.80;;;25.90;61.70;;;;;;5032793;28;20455;-83
2022/06/02 11:07:29;;;;;;;1.47;0.80;;;26.10;61.80;;;;;;5030299;28;20481;-83
2022/06/02 11:10:22;;;;;;;1.50;0.80;;;26.40;61.50;;;;;;5025601;28;20537;-84
2022/06/02 11:13:14;;;;;;;1.47;0.83;;;26.70;61.30;;;;;;5021862;28;20955;-83
2022/06/02 11:16:11;;;;;;;1.47;0.80;;;26.60;57.70;;;;;;5042393;28;20485;-83
2022/06/02 11:19:14;;;;;;;1.47;0.90;;;26.50;60.10;;;;;;5038436;28;20465;-83
2022/06/02 11:22:13;;;;;;;1.50;0.80;;;26.10;58.50;;;;;;5030196;28;20455;-83
2022/06/02 11:25:23;;;;;;;1.43;0.83;;;25.50;58.40;;;;;;5041339;28;20470;-81
2022/06/02 11:28:13;;;;;;;1.47;0.90;;;25.10;59.60;;;;;;5018622;28;20451;-80
2022/06/02 11:31:00;;;;;;;1.43;0.80;;;25.10;61.20;;;;;;5032719;28;21001;-79
2022/06/02 11:33:58;;;;;;;1.43;0.80;;;25.30;60.30;;;;;;5034287;28;20473;-81
2022/06/02 11:36:53;;;;;;;1.40;0.80;;;25.60;61.90;;;;;;5030197;28;20504;-79
2022/06/02 11:39:54;;;;;;;1.43;0.90;;;25.70;59.60;;;;;;5025647;28;20466;-80
2022/06/02 11:42:35;;;;;;;1.40;0.90;;;25.70;62.10;;;;;;5021122;28;20474;-81
2022/06/02 11:45:14;;;;;;;1.47;0.80;;;25.80;60.80;;;;;;5022621;28;20490;-82
2022/06/02 11:48:10;;;;;;;1.40;0.80;;;26.10;61.10;;;;;;5026095;28;20474;-83
2022/06/02 11:51:22;;;;;;;1.50;0.90;;;26.20;60.90;;;;;;5026438;28;20460;-84
2022/06/02 11:54:14;;;;;;;1.47;0.80;;;26.50;59.80;;;;;;5017174;28;20959;-83
2022/06/02 11:56:54;;;;;;;1.40;0.83;;;26.60;59.30;;;;;;5019518;28;20487;-83
2022/06/02 11:59:49;;;;;;;1.47;0.80;;;26.80;59.00;;;;;;5024555;28;20469;-82
2022/06/02 12:02:37;;;;;;;1.40;0.80;;;26.80;59.60;;;;;;5032406;28;20458;-81
2022/06/02 12:05:39;;;;;;;1.43;0.80;;;26.50;59.30;;;;;;5028872;28;20485;-82
2022/06/02 12:09:00;;;;;;;1.47;0.80;;;26.70;60.30;;;;;;4992838;28;20451;-82
2022/06/02 12:11:44;;;;;;;1.47;0.80;;;27.00;59.60;;;;;;4951199;29;21010;-81
2022/06/02 12:15:01;;;;;;;1.50;0.80;;;27.50;59.80;;;;;;4950298;29;20466;-81
2022/06/02 12:17:46;;;;;;;1.50;0.80;;;27.50;56.90;;;;;;5026992;28;20478;-82
2022/06/02 12:20:34;;;;;;;1.43;0.80;;;26.80;57.50;;;;;;5030072;28;21044;-81
2022/06/02 12:23:19;;;;;;;1.47;0.80;;;26.90;60.90;;;;;;5031453;28;20465;-82
2022/06/02 12:25:58;;;;;;;1.50;1.00;;;27.10;59.30;;;;;;5034851;28;20490;-82
2022/06/02 12:28:45;;;;;;;1.47;0.80;;;26.90;58.60;;;;;;5024434;28;20994;-82
2022/06/02 12:32:01;;;;;;;1.43;0.80;;;26.70;59.90;;;;;;5023610;28;20494;-81
2022/06/02 12:34:55;;;;;;;1.43;0.80;;;26.50;58.90;;;;;;5031395;28;20459;-82
2022/06/02 12:37:53;;;;;;;1.47;0.90;;;26.50;59.00;;;;;;5032733;28;20538;-82
2022/06/02 12:40:32;;;;;;;1.47;0.80;;;26.50;62.60;;;;;;5023447;28;20469;-81
2022/06/02 12:43:38;;;;;;;1.47;0.80;;;26.50;59.60;;;;;;5009526;28;20487;-81
2022/06/02 12:46:23;;;;;;;1.43;0.80;;;26.60;59.50;;;;;;5022321;28;20486;-82
2022/06/02 12:49:21;;;;;;;1.50;0.90;;;26.90;60.20;;;;;;5018635;28;20459;-80
2022/06/02 12:52:18;;;;;;;1.43;0.80;;;27.10;59.20;;;;;;5019599;28;20531;-82
2022/06/02 12:55:23;;;;;;;1.47;0.80;;;27.30;58.40;;;;;;5032738;28;20474;-81
2022/06/02 12:58:24;;;;;;;1.43;0.80;;;26.80;58.70;;;;;;5025790;28;20467;-81
2022/06/02 13:01:02;;;;;;;1.50;0.90;;;26.40;57.90;;;;;;5028949;28;20458;-82
2022/06/02 13:04:30;;;;;;;1.40;0.80;;;26.10;59.50;;;;;;5033770;28;20488;-81
2022/06/02 13:07:34;;;;;;;1.47;0.80;;;26.00;59.50;;;;;;5002147;28;20526;-84
2022/06/02 13:10:34;;;;;;;1.60;1.20;;;26.30;59.70;;;;;;5026878;28;20491;-83
2022/06/02 13:13:48;;;;;;;1.50;0.80;;;26.90;60.30;;;;;;5029447;28;20662;-83
2022/06/02 13:16:50;;;;;;;1.43;0.80;;;27.50;58.90;;;;;;4989273;28;20874;-83
2022/06/02 13:19:52;;;;;;;1.80;1.27;;;28.10;56.40;;;;;;4980652;28;20644;-83
2022/06/02 13:22:48;;;;;;;1.47;0.80;;;28.30;57.10;;;;;;5018482;28;20477;-82
2022/06/02 13:25:47;;;;;;;2.00;1.60;;;28.10;58.90;;;;;;5031610;28;20570;-85
2022/06/02 13:28:48;;;;;;;1.43;0.90;;;28.00;58.30;;;;;;4957235;28;20541;-83
2022/06/02 13:31:53;;;;;;;1.40;0.80;;;27.60;58.10;;;;;;5005854;28;20491;-83
2022/06/02 13:35:11;;;;;;;1.40;0.80;;;26.90;58.10;;;;;;5006749;28;20464;-81
2022/06/02 13:38:06;;;;;;;1.40;0.90;;;26.50;59.50;;;;;;5011124;28;20552;-82
2022/06/02 13:40:45;;;;;;;1.40;0.80;;;26.80;61.10;;;;;;4987757;28;20479;-81
2022/06/02 13:43:50;;;;;;;1.47;0.90;;;27.30;61.30;;;;;;5017192;28;20485;-83
2022/06/02 13:47:03;;;;;;;1.43;0.80;;;27.70;59.60;;;;;;5024843;28;20538;-81
2022/06/02 13:50:16;;;;;;;1.43;0.80;;;27.90;60.20;;;;;;5008128;28;20462;-81
2022/06/02 13:53:20;;;;;;;1.40;0.80;;;28.20;59.40;;;;;;5006268;28;20506;-83
2022/06/02 13:59:41;;;;;;;1.47;0.80;;;27.90;58.30;;;;;;5017844;28;20454;-81
2022/06/02 14:02:42;;;;;;;1.50;0.80;;;28.00;59.40;;;;;;5007935;28;20463;-78
2022/06/02 14:05:29;;;;;;;1.43;0.80;;;28.10;57.60;;;;;;5032232;28;20513;-78
2022/06/02 14:08:23;;;;;;;1.43;0.80;;;28.30;59.10;;;;;;5020518;28;20486;-78
2022/06/02 14:11:00;;;;;;;1.50;0.90;;;28.60;58.00;;;;;;5020085;28;20462;-78
2022/06/02 14:13:53;;;;;;;1.40;0.90;;;28.60;55.30;;;;;;5025977;28;20626;-81
2022/06/02 14:16:30;;;;;;;1.43;0.80;;;27.70;55.90;;;;;;5016302;28;20490;-80
2022/06/02 14:19:07;;;;;;;1.40;0.80;;;27.00;58.70;;;;;;5057203;22;20497;-73
2022/06/02 14:21:47;;;;;;;1.43;0.80;;;26.80;57.50;;;;;;5040408;28;20472;-76
2022/06/02 14:24:20;;;;;;;1.40;0.80;;;26.70;57.60;;;;;;5056833;28;20471;-75
2022/06/02 14:27:13;;;;;;;1.50;0.80;;;26.80;59.60;;;;;;5046458;28;20462;-77
2022/06/02 14:29:52;;;;;;;1.40;0.80;;;27.20;59.00;;;;;;5025190;28;20797;-77
2022/06/02 14:32:26;;;;;;;1.40;0.80;;;27.60;57.80;;;;;;5030326;28;20592;-77
2022/06/02 14:35:25;;;;;;;1.47;0.80;;;27.90;60.10;;;;;;5034010;28;20492;-77
2022/06/02 14:37:58;;;;;;;1.47;0.90;;;28.20;59.10;;;;;;5026209;28;20487;-77
2022/06/02 14:40:29;;;;;;;1.40;0.80;;;28.30;56.80;;;;;;5019210;28;20490;-76